sensor_id;sensor_type;location;lat;lon;timestamp;P1;durP1;ratioP1;P2;durP2;ratioP2
18695;SDS011;22617;43.690;27.956;2023-10-08T00:03:19;9.30;;;4.57;;
18695;SDS011;22617;43.690;27.956;2023-10-08T00:08:23;10.50;;;4.57;;
18695;SDS011;22617;43.690;27.956;2023-10-08T00:13:28;9.37;;;4.23;;
18695;SDS011;22617;43.690;27.956;2023-10-08T00:18:32;10.93;;;4.37;;
18695;SDS011;22617;43.690;27.956;2023-10-08T00:23:36;11.53;;;4.60;;
18695;SDS011;22617;43.690;27.956;2023-10-08T00:28:45;9.67;;;4.33;;
18695;SDS011;22617;43.690;27.956;2023-10-08T00:33:49;8.50;;;4.00;;
18695;SDS011;22617;43.690;27.956;2023-10-08T00:38:53;10.83;;;4.20;;
18695;SDS011;22617;43.690;27.956;2023-10-08T00:44:02;10.13;;;4.47;;
18695;SDS011;22617;43.690;27.956;2023-10-08T00:49:07;13.13;;;4.70;;
18695;SDS011;22617;43.690;27.956;2023-10-08T00:54:26;9.30;;;4.27;;
18695;SDS011;22617;43.690;27.956;2023-10-08T00:59:36;9.87;;;3.63;;
18695;SDS011;22617;43.690;27.956;2023-10-08T01:04:47;9.13;;;3.93;;
18695;SDS011;22617;43.690;27.956;2023-10-08T01:09:52;9.13;;;4.30;;
18695;SDS011;22617;43.690;27.956;2023-10-08T01:15:04;10.43;;;4.40;;
18695;SDS011;22617;43.690;27.956;2023-10-08T01:20:18;8.37;;;3.97;;
18695;SDS011;22617;43.690;27.956;2023-10-08T01:25:37;10.67;;;4.73;;
18695;SDS011;22617;43.690;27.956;2023-10-08T01:30:42;9.00;;;3.80;;
18695;SDS011;22617;43.690;27.956;2023-10-08T01:35:49;10.83;;;4.10;;
18695;SDS011;22617;43.690;27.956;2023-10-08T01:40:54;15.37;;;4.83;;
18695;SDS011;22617;43.690;27.956;2023-10-08T01:45:58;7.90;;;3.80;;
18695;SDS011;22617;43.690;27.956;2023-10-08T01:51:05;9.37;;;4.23;;
18695;SDS011;22617;43.690;27.956;2023-10-08T01:56:15;9.27;;;4.20;;
18695;SDS011;22617;43.690;27.956;2023-10-08T02:01:19;8.83;;;3.73;;
18695;SDS011;22617;43.690;27.956;2023-10-08T02:06:23;11.93;;;3.83;;
18695;SDS011;22617;43.690;27.956;2023-10-08T02:11:28;9.10;;;4.10;;
18695;SDS011;22617;43.690;27.956;2023-10-08T02:16:32;9.10;;;3.67;;
18695;SDS011;22617;43.690;27.956;2023-10-08T02:21:35;10.30;;;4.37;;
18695;SDS011;22617;43.690;27.956;2023-10-08T02:26:41;6.67;;;3.40;;
18695;SDS011;22617;43.690;27.956;2023-10-08T02:31:45;8.67;;;3.67;;
18695;SDS011;22617;43.690;27.956;2023-10-08T02:36:49;8.87;;;4.10;;
18695;SDS011;22617;43.690;27.956;2023-10-08T02:41:55;8.27;;;3.90;;
18695;SDS011;22617;43.690;27.956;2023-10-08T02:47:02;7.43;;;4.00;;
18695;SDS011;22617;43.690;27.956;2023-10-08T02:52:06;11.93;;;4.03;;
18695;SDS011;22617;43.690;27.956;2023-10-08T02:57:13;9.50;;;4.30;;
18695;SDS011;22617;43.690;27.956;2023-10-08T03:02:17;9.77;;;4.00;;
18695;SDS011;22617;43.690;27.956;2023-10-08T03:07:22;10.23;;;4.00;;
18695;SDS011;22617;43.690;27.956;2023-10-08T03:12:36;8.87;;;3.93;;
18695;SDS011;22617;43.690;27.956;2023-10-08T03:17:40;11.00;;;4.30;;
18695;SDS011;22617;43.690;27.956;2023-10-08T03:22:51;10.63;;;4.20;;
18695;SDS011;22617;43.690;27.956;2023-10-08T03:27:56;13.67;;;4.60;;
18695;SDS011;22617;43.690;27.956;2023-10-08T03:33:01;10.60;;;4.07;;
18695;SDS011;22617;43.690;27.956;2023-10-08T03:38:06;9.40;;;4.67;;
18695;SDS011;22617;43.690;27.956;2023-10-08T03:43:25;15.50;;;5.03;;
18695;SDS011;22617;43.690;27.956;2023-10-08T03:48:36;9.87;;;4.53;;
18695;SDS011;22617;43.690;27.956;2023-10-08T03:53:40;11.37;;;4.67;;
18695;SDS011;22617;43.690;27.956;2023-10-08T03:59:01;12.80;;;4.50;;
18695;SDS011;22617;43.690;27.956;2023-10-08T04:04:15;11.63;;;5.50;;
18695;SDS011;22617;43.690;27.956;2023-10-08T04:09:18;10.70;;;4.80;;
18695;SDS011;22617;43.690;27.956;2023-10-08T04:14:28;11.37;;;4.47;;
18695;SDS011;22617;43.690;27.956;2023-10-08T04:19:33;12.23;;;4.67;;
18695;SDS011;22617;43.690;27.956;2023-10-08T04:24:36;11.67;;;4.67;;
18695;SDS011;22617;43.690;27.956;2023-10-08T04:29:47;11.93;;;4.20;;
18695;SDS011;22617;43.690;27.956;2023-10-08T04:34:51;12.37;;;4.83;;
18695;SDS011;22617;43.690;27.956;2023-10-08T04:39:58;9.80;;;5.43;;
18695;SDS011;22617;43.690;27.956;2023-10-08T04:45:04;10.80;;;4.60;;
18695;SDS011;22617;43.690;27.956;2023-10-08T04:50:13;12.17;;;4.87;;
18695;SDS011;22617;43.690;27.956;2023-10-08T04:55:20;11.70;;;4.93;;
18695;SDS011;22617;43.690;27.956;2023-10-08T05:00:32;10.03;;;4.93;;
18695;SDS011;22617;43.690;27.956;2023-10-08T05:05:55;9.80;;;5.50;;
18695;SDS011;22617;43.690;27.956;2023-10-08T05:11:09;10.80;;;4.63;;
18695;SDS011;22617;43.690;27.956;2023-10-08T05:16:40;12.30;;;4.87;;
18695;SDS011;22617;43.690;27.956;2023-10-08T05:22:02;15.03;;;5.40;;
18695;SDS011;22617;43.690;27.956;2023-10-08T05:27:20;11.50;;;5.07;;
18695;SDS011;22617;43.690;27.956;2023-10-08T05:32:59;11.83;;;4.40;;
18695;SDS011;22617;43.690;27.956;2023-10-08T05:38:15;11.27;;;5.07;;
18695;SDS011;22617;43.690;27.956;2023-10-08T05:43:29;11.60;;;4.60;;
18695;SDS011;22617;43.690;27.956;2023-10-08T05:48:53;9.80;;;4.47;;
18695;SDS011;22617;43.690;27.956;2023-10-08T05:54:04;9.80;;;4.77;;
18695;SDS011;22617;43.690;27.956;2023-10-08T05:59:26;12.10;;;4.60;;
18695;SDS011;22617;43.690;27.956;2023-10-08T06:04:42;11.83;;;4.63;;
18695;SDS011;22617;43.690;27.956;2023-10-08T06:09:55;10.63;;;4.67;;
18695;SDS011;22617;43.690;27.956;2023-10-08T06:15:24;17.03;;;4.77;;
18695;SDS011;22617;43.690;27.956;2023-10-08T06:20:47;12.90;;;3.80;;
18695;SDS011;22617;43.690;27.956;2023-10-08T06:25:56;16.00;;;4.10;;
18695;SDS011;22617;43.690;27.956;2023-10-08T06:31:01;14.63;;;4.20;;
18695;SDS011;22617;43.690;27.956;2023-10-08T06:36:10;11.85;;;4.60;;
18695;SDS011;22617;43.690;27.956;2023-10-08T06:41:17;11.27;;;4.15;;
18695;SDS011;22617;43.690;27.956;2023-10-08T06:46:31;13.57;;;4.03;;
18695;SDS011;22617;43.690;27.956;2023-10-08T06:51:38;9.63;;;3.63;;
18695;SDS011;22617;43.690;27.956;2023-10-08T06:56:43;9.95;;;4.05;;
18695;SDS011;22617;43.690;27.956;2023-10-08T07:01:54;10.73;;;4.15;;
18695;SDS011;22617;43.690;27.956;2023-10-08T07:06:59;13.77;;;3.58;;
18695;SDS011;22617;43.690;27.956;2023-10-08T07:12:03;9.52;;;3.55;;
18695;SDS011;22617;43.690;27.956;2023-10-08T07:17:15;20.73;;;5.45;;
18695;SDS011;22617;43.690;27.956;2023-10-08T07:22:24;10.77;;;3.40;;
18695;SDS011;22617;43.690;27.956;2023-10-08T07:27:31;12.80;;;3.60;;
18695;SDS011;22617;43.690;27.956;2023-10-08T07:32:39;11.50;;;3.70;;
18695;SDS011;22617;43.690;27.956;2023-10-08T07:37:44;11.20;;;3.42;;
18695;SDS011;22617;43.690;27.956;2023-10-08T07:42:48;10.30;;;3.58;;
18695;SDS011;22617;43.690;27.956;2023-10-08T07:47:53;7.82;;;3.20;;
18695;SDS011;22617;43.690;27.956;2023-10-08T07:52:58;10.75;;;3.67;;
18695;SDS011;22617;43.690;27.956;2023-10-08T07:58:03;8.45;;;3.17;;
18695;SDS011;22617;43.690;27.956;2023-10-08T08:03:11;8.60;;;3.33;;
18695;SDS011;22617;43.690;27.956;2023-10-08T08:08:17;9.60;;;3.72;;
18695;SDS011;22617;43.690;27.956;2023-10-08T08:13:24;10.77;;;4.15;;
18695;SDS011;22617;43.690;27.956;2023-10-08T08:18:29;11.02;;;3.83;;
18695;SDS011;22617;43.690;27.956;2023-10-08T08:23:36;11.07;;;3.85;;
18695;SDS011;22617;43.690;27.956;2023-10-08T08:28:40;12.15;;;3.92;;
18695;SDS011;22617;43.690;27.956;2023-10-08T08:33:44;10.65;;;3.50;;
18695;SDS011;22617;43.690;27.956;2023-10-08T08:39:00;9.63;;;3.70;;
18695;SDS011;22617;43.690;27.956;2023-10-08T08:44:06;10.75;;;4.07;;
18695;SDS011;22617;43.690;27.956;2023-10-08T08:49:11;8.32;;;3.70;;
18695;SDS011;22617;43.690;27.956;2023-10-08T08:54:17;12.35;;;3.80;;
18695;SDS011;22617;43.690;27.956;2023-10-08T08:59:22;14.27;;;4.22;;
18695;SDS011;22617;43.690;27.956;2023-10-08T09:04:29;8.15;;;3.63;;
18695;SDS011;22617;43.690;27.956;2023-10-08T09:09:36;9.35;;;3.72;;
18695;SDS011;22617;43.690;27.956;2023-10-08T09:14:41;12.05;;;4.20;;
18695;SDS011;22617;43.690;27.956;2023-10-08T09:19:46;9.98;;;3.60;;
18695;SDS011;22617;43.690;27.956;2023-10-08T09:24:52;10.38;;;3.90;;
18695;SDS011;22617;43.690;27.956;2023-10-08T09:29:57;8.10;;;3.70;;
18695;SDS011;22617;43.690;27.956;2023-10-08T09:35:02;9.82;;;3.97;;
18695;SDS011;22617;43.690;27.956;2023-10-08T09:40:09;12.32;;;3.20;;
18695;SDS011;22617;43.690;27.956;2023-10-08T09:45:22;11.68;;;3.50;;
18695;SDS011;22617;43.690;27.956;2023-10-08T09:50:28;7.80;;;3.50;;
18695;SDS011;22617;43.690;27.956;2023-10-08T09:55:35;10.15;;;3.58;;
18695;SDS011;22617;43.690;27.956;2023-10-08T10:00:40;9.18;;;3.42;;
18695;SDS011;22617;43.690;27.956;2023-10-08T10:05:47;9.02;;;3.47;;
18695;SDS011;22617;43.690;27.956;2023-10-08T10:10:58;8.18;;;3.63;;
18695;SDS011;22617;43.690;27.956;2023-10-08T10:16:03;8.98;;;3.70;;
18695;SDS011;22617;43.690;27.956;2023-10-08T10:21:31;11.82;;;3.83;;
18695;SDS011;22617;43.690;27.956;2023-10-08T10:26:40;13.23;;;3.95;;
18695;SDS011;22617;43.690;27.956;2023-10-08T10:31:52;12.30;;;4.15;;
18695;SDS011;22617;43.690;27.956;2023-10-08T10:36:59;14.18;;;5.82;;
18695;SDS011;22617;43.690;27.956;2023-10-08T10:42:12;11.55;;;4.18;;
18695;SDS011;22617;43.690;27.956;2023-10-08T10:47:23;11.20;;;3.90;;
18695;SDS011;22617;43.690;27.956;2023-10-08T10:52:30;11.40;;;3.63;;
18695;SDS011;22617;43.690;27.956;2023-10-08T10:57:36;10.38;;;3.13;;
18695;SDS011;22617;43.690;27.956;2023-10-08T11:02:43;11.52;;;3.33;;
18695;SDS011;22617;43.690;27.956;2023-10-08T11:07:51;7.90;;;3.20;;
18695;SDS011;22617;43.690;27.956;2023-10-08T11:12:58;11.48;;;3.00;;
18695;SDS011;22617;43.690;27.956;2023-10-08T11:18:06;10.18;;;2.72;;
18695;SDS011;22617;43.690;27.956;2023-10-08T11:23:11;15.07;;;4.05;;
18695;SDS011;22617;43.690;27.956;2023-10-08T11:28:32;13.43;;;3.47;;
18695;SDS011;22617;43.690;27.956;2023-10-08T11:33:38;7.50;;;2.90;;
18695;SDS011;22617;43.690;27.956;2023-10-08T11:38:45;8.35;;;3.42;;
18695;SDS011;22617;43.690;27.956;2023-10-08T11:43:54;11.82;;;3.28;;
18695;SDS011;22617;43.690;27.956;2023-10-08T11:49:00;12.23;;;2.95;;
18695;SDS011;22617;43.690;27.956;2023-10-08T11:54:07;11.48;;;3.03;;
18695;SDS011;22617;43.690;27.956;2023-10-08T11:59:15;8.80;;;3.10;;
18695;SDS011;22617;43.690;27.956;2023-10-08T12:04:20;13.07;;;3.25;;
18695;SDS011;22617;43.690;27.956;2023-10-08T12:09:25;12.45;;;4.57;;
18695;SDS011;22617;43.690;27.956;2023-10-08T12:14:30;16.48;;;3.45;;
18695;SDS011;22617;43.690;27.956;2023-10-08T12:19:34;11.38;;;2.92;;
18695;SDS011;22617;43.690;27.956;2023-10-08T12:24:38;16.55;;;2.88;;
18695;SDS011;22617;43.690;27.956;2023-10-08T12:29:43;15.32;;;3.20;;
18695;SDS011;22617;43.690;27.956;2023-10-08T12:34:46;8.52;;;2.90;;
18695;SDS011;22617;43.690;27.956;2023-10-08T12:39:50;12.70;;;3.20;;
18695;SDS011;22617;43.690;27.956;2023-10-08T12:45:06;14.60;;;3.28;;
18695;SDS011;22617;43.690;27.956;2023-10-08T12:50:14;16.05;;;4.57;;
18695;SDS011;22617;43.690;27.956;2023-10-08T12:55:18;20.90;;;4.85;;
18695;SDS011;22617;43.690;27.956;2023-10-08T13:00:27;13.93;;;4.07;;
18695;SDS011;22617;43.690;27.956;2023-10-08T13:05:30;17.85;;;4.65;;
18695;SDS011;22617;43.690;27.956;2023-10-08T13:10:35;13.27;;;5.18;;
18695;SDS011;22617;43.690;27.956;2023-10-08T13:15:44;18.02;;;4.63;;
18695;SDS011;22617;43.690;27.956;2023-10-08T13:20:48;20.15;;;4.90;;
18695;SDS011;22617;43.690;27.956;2023-10-08T13:25:53;20.75;;;5.20;;
18695;SDS011;22617;43.690;27.956;2023-10-08T13:30:59;18.50;;;5.28;;
18695;SDS011;22617;43.690;27.956;2023-10-08T13:36:03;14.73;;;5.70;;
18695;SDS011;22617;43.690;27.956;2023-10-08T13:41:19;22.52;;;5.47;;
18695;SDS011;22617;43.690;27.956;2023-10-08T13:46:24;12.75;;;5.10;;
18695;SDS011;22617;43.690;27.956;2023-10-08T13:51:28;17.23;;;4.72;;
18695;SDS011;22617;43.690;27.956;2023-10-08T13:56:32;22.50;;;5.53;;
18695;SDS011;22617;43.690;27.956;2023-10-08T14:01:43;16.60;;;4.18;;
18695;SDS011;22617;43.690;27.956;2023-10-08T14:06:49;17.52;;;4.22;;
18695;SDS011;22617;43.690;27.956;2023-10-08T14:11:56;14.43;;;4.22;;
18695;SDS011;22617;43.690;27.956;2023-10-08T14:17:01;19.05;;;4.38;;
18695;SDS011;22617;43.690;27.956;2023-10-08T14:22:08;13.85;;;4.00;;
18695;SDS011;22617;43.690;27.956;2023-10-08T14:27:17;11.95;;;3.72;;
18695;SDS011;22617;43.690;27.956;2023-10-08T14:32:28;15.43;;;3.58;;
18695;SDS011;22617;43.690;27.956;2023-10-08T14:37:34;15.95;;;3.60;;
18695;SDS011;22617;43.690;27.956;2023-10-08T14:42:55;12.27;;;3.00;;
18695;SDS011;22617;43.690;27.956;2023-10-08T14:48:06;15.13;;;3.70;;
18695;SDS011;22617;43.690;27.956;2023-10-08T14:53:14;17.92;;;3.55;;
18695;SDS011;22617;43.690;27.956;2023-10-08T14:58:18;18.58;;;3.97;;
18695;SDS011;22617;43.690;27.956;2023-10-08T15:03:23;21.85;;;3.85;;
18695;SDS011;22617;43.690;27.956;2023-10-08T15:08:29;11.18;;;2.22;;
18695;SDS011;22617;43.690;27.956;2023-10-08T15:13:34;52.70;;;5.50;;
18695;SDS011;22617;43.690;27.956;2023-10-08T15:18:42;99.10;;;7.43;;
18695;SDS011;22617;43.690;27.956;2023-10-08T15:23:45;87.60;;;5.80;;
18695;SDS011;22617;43.690;27.956;2023-10-08T15:28:49;94.35;;;5.82;;
18695;SDS011;22617;43.690;27.956;2023-10-08T15:33:54;63.20;;;5.82;;
18695;SDS011;22617;43.690;27.956;2023-10-08T15:38:57;68.13;;;5.45;;
18695;SDS011;22617;43.690;27.956;2023-10-08T15:44:01;86.72;;;5.38;;
18695;SDS011;22617;43.690;27.956;2023-10-08T15:49:08;94.13;;;5.45;;
18695;SDS011;22617;43.690;27.956;2023-10-08T15:54:12;69.70;;;5.32;;
18695;SDS011;22617;43.690;27.956;2023-10-08T15:59:18;54.58;;;4.32;;
18695;SDS011;22617;43.690;27.956;2023-10-08T16:04:23;57.03;;;3.85;;
18695;SDS011;22617;43.690;27.956;2023-10-08T16:09:30;49.87;;;4.63;;
18695;SDS011;22617;43.690;27.956;2023-10-08T16:14:33;35.23;;;4.20;;
18695;SDS011;22617;43.690;27.956;2023-10-08T16:19:40;26.93;;;4.00;;
18695;SDS011;22617;43.690;27.956;2023-10-08T16:24:44;26.77;;;2.50;;
18695;SDS011;22617;43.690;27.956;2023-10-08T16:29:47;23.17;;;2.47;;
18695;SDS011;22617;43.690;27.956;2023-10-08T16:34:53;23.77;;;2.20;;
18695;SDS011;22617;43.690;27.956;2023-10-08T16:39:58;28.63;;;2.00;;
18695;SDS011;22617;43.690;27.956;2023-10-08T16:45:04;23.47;;;2.13;;
18695;SDS011;22617;43.690;27.956;2023-10-08T16:50:10;14.93;;;1.30;;
18695;SDS011;22617;43.690;27.956;2023-10-08T16:55:14;13.10;;;0.93;;
18695;SDS011;22617;43.690;27.956;2023-10-08T17:00:20;10.23;;;0.90;;
18695;SDS011;22617;43.690;27.956;2023-10-08T17:05:25;11.10;;;0.73;;
18695;SDS011;22617;43.690;27.956;2023-10-08T17:10:29;8.30;;;1.00;;
18695;SDS011;22617;43.690;27.956;2023-10-08T17:15:34;4.83;;;0.80;;
18695;SDS011;22617;43.690;27.956;2023-10-08T17:20:39;4.47;;;0.70;;
18695;SDS011;22617;43.690;27.956;2023-10-08T17:25:43;5.57;;;0.70;;
18695;SDS011;22617;43.690;27.956;2023-10-08T17:30:47;8.27;;;0.70;;
18695;SDS011;22617;43.690;27.956;2023-10-08T17:35:52;3.60;;;0.60;;
18695;SDS011;22617;43.690;27.956;2023-10-08T17:40:56;5.07;;;0.60;;
18695;SDS011;22617;43.690;27.956;2023-10-08T17:46:02;3.33;;;0.70;;
18695;SDS011;22617;43.690;27.956;2023-10-08T17:51:07;3.67;;;0.50;;
18695;SDS011;22617;43.690;27.956;2023-10-08T17:56:12;3.57;;;0.60;;
18695;SDS011;22617;43.690;27.956;2023-10-08T18:01:17;3.97;;;0.60;;
18695;SDS011;22617;43.690;27.956;2023-10-08T18:06:24;2.97;;;0.97;;
18695;SDS011;22617;43.690;27.956;2023-10-08T18:11:29;8.43;;;0.97;;
18695;SDS011;22617;43.690;27.956;2023-10-08T18:16:35;1.70;;;0.60;;
18695;SDS011;22617;43.690;27.956;2023-10-08T18:21:40;3.80;;;0.80;;
18695;SDS011;22617;43.690;27.956;2023-10-08T18:26:46;3.60;;;0.70;;
18695;SDS011;22617;43.690;27.956;2023-10-08T18:31:53;3.27;;;1.03;;
18695;SDS011;22617;43.690;27.956;2023-10-08T18:36:58;6.73;;;1.13;;
18695;SDS011;22617;43.690;27.956;2023-10-08T18:42:02;6.37;;;1.93;;
18695;SDS011;22617;43.690;27.956;2023-10-08T18:47:07;5.20;;;1.00;;
18695;SDS011;22617;43.690;27.956;2023-10-08T18:52:13;3.80;;;1.00;;
18695;SDS011;22617;43.690;27.956;2023-10-08T18:57:16;5.80;;;0.90;;
18695;SDS011;22617;43.690;27.956;2023-10-08T19:02:20;8.80;;;1.27;;
18695;SDS011;22617;43.690;27.956;2023-10-08T19:07:25;7.17;;;0.87;;
18695;SDS011;22617;43.690;27.956;2023-10-08T19:12:30;3.97;;;1.23;;
18695;SDS011;22617;43.690;27.956;2023-10-08T19:17:34;2.73;;;1.07;;
18695;SDS011;22617;43.690;27.956;2023-10-08T19:22:40;2.73;;;0.97;;
18695;SDS011;22617;43.690;27.956;2023-10-08T19:27:44;1.93;;;0.80;;
18695;SDS011;22617;43.690;27.956;2023-10-08T19:32:50;3.40;;;1.10;;
18695;SDS011;22617;43.690;27.956;2023-10-08T19:37:56;1.83;;;1.00;;
18695;SDS011;22617;43.690;27.956;2023-10-08T19:42:59;4.13;;;1.60;;
18695;SDS011;22617;43.690;27.956;2023-10-08T19:48:03;2.07;;;1.17;;
18695;SDS011;22617;43.690;27.956;2023-10-08T19:53:09;3.77;;;1.00;;
18695;SDS011;22617;43.690;27.956;2023-10-08T19:58:14;2.13;;;1.00;;
18695;SDS011;22617;43.690;27.956;2023-10-08T20:03:19;4.37;;;1.20;;
18695;SDS011;22617;43.690;27.956;2023-10-08T20:08:24;1.90;;;1.00;;
18695;SDS011;22617;43.690;27.956;2023-10-08T20:13:28;4.40;;;1.20;;
18695;SDS011;22617;43.690;27.956;2023-10-08T20:18:32;4.80;;;1.30;;
18695;SDS011;22617;43.690;27.956;2023-10-08T20:23:37;4.10;;;1.50;;
18695;SDS011;22617;43.690;27.956;2023-10-08T20:28:41;2.50;;;1.10;;
18695;SDS011;22617;43.690;27.956;2023-10-08T20:33:45;3.67;;;1.17;;
18695;SDS011;22617;43.690;27.956;2023-10-08T20:38:50;2.77;;;1.00;;
18695;SDS011;22617;43.690;27.956;2023-10-08T20:43:55;2.77;;;1.17;;
18695;SDS011;22617;43.690;27.956;2023-10-08T20:48:59;1.90;;;1.10;;
18695;SDS011;22617;43.690;27.956;2023-10-08T20:54:04;3.50;;;1.27;;
18695;SDS011;22617;43.690;27.956;2023-10-08T20:59:07;3.17;;;1.20;;
18695;SDS011;22617;43.690;27.956;2023-10-08T21:04:11;3.00;;;1.10;;
18695;SDS011;22617;43.690;27.956;2023-10-08T21:09:16;3.83;;;1.43;;
18695;SDS011;22617;43.690;27.956;2023-10-08T21:14:20;3.90;;;1.50;;
18695;SDS011;22617;43.690;27.956;2023-10-08T21:19:23;4.10;;;1.20;;
18695;SDS011;22617;43.690;27.956;2023-10-08T21:24:29;2.10;;;1.10;;
18695;SDS011;22617;43.690;27.956;2023-10-08T21:29:33;2.17;;;1.17;;
18695;SDS011;22617;43.690;27.956;2023-10-08T21:34:36;3.27;;;1.40;;
18695;SDS011;22617;43.690;27.956;2023-10-08T21:39:41;2.27;;;1.10;;
18695;SDS011;22617;43.690;27.956;2023-10-08T21:44:46;2.70;;;1.07;;
18695;SDS011;22617;43.690;27.956;2023-10-08T21:49:51;2.23;;;1.00;;
18695;SDS011;22617;43.690;27.956;2023-10-08T21:54:56;3.60;;;1.03;;
18695;SDS011;22617;43.690;27.956;2023-10-08T22:00:00;1.40;;;0.90;;
18695;SDS011;22617;43.690;27.956;2023-10-08T22:05:08;4.67;;;1.00;;
18695;SDS011;22617;43.690;27.956;2023-10-08T22:10:14;2.57;;;1.00;;
18695;SDS011;22617;43.690;27.956;2023-10-08T22:15:22;4.23;;;1.10;;
18695;SDS011;22617;43.690;27.956;2023-10-08T22:20:31;3.17;;;1.00;;
18695;SDS011;22617;43.690;27.956;2023-10-08T22:25:54;2.43;;;1.00;;
18695;SDS011;22617;43.690;27.956;2023-10-08T22:30:58;3.57;;;1.10;;
18695;SDS011;22617;43.690;27.956;2023-10-08T22:36:06;2.00;;;1.10;;
18695;SDS011;22617;43.690;27.956;2023-10-08T22:41:16;3.43;;;1.37;;
18695;SDS011;22617;43.690;27.956;2023-10-08T22:46:24;3.13;;;0.90;;
18695;SDS011;22617;43.690;27.956;2023-10-08T22:51:29;2.83;;;1.13;;
18695;SDS011;22617;43.690;27.956;2023-10-08T22:56:39;4.33;;;1.07;;
18695;SDS011;22617;43.690;27.956;2023-10-08T23:01:44;3.20;;;1.10;;
18695;SDS011;22617;43.690;27.956;2023-10-08T23:06:48;2.37;;;1.10;;
18695;SDS011;22617;43.690;27.956;2023-10-08T23:11:54;2.80;;;1.10;;
18695;SDS011;22617;43.690;27.956;2023-10-08T23:16:58;3.07;;;1.10;;
18695;SDS011;22617;43.690;27.956;2023-10-08T23:22:02;1.87;;;0.80;;
18695;SDS011;22617;43.690;27.956;2023-10-08T23:27:07;1.93;;;0.90;;
18695;SDS011;22617;43.690;27.956;2023-10-08T23:32:11;2.07;;;1.27;;
18695;SDS011;22617;43.690;27.956;2023-10-08T23:37:15;1.80;;;1.10;;
18695;SDS011;22617;43.690;27.956;2023-10-08T23:42:26;2.13;;;0.80;;
18695;SDS011;22617;43.690;27.956;2023-10-08T23:47:34;3.20;;;1.03;;
18695;SDS011;22617;43.690;27.956;2023-10-08T23:52:48;1.80;;;0.90;;
18695;SDS011;22617;43.690;27.956;2023-10-08T23:57:53;4.13;;;1.20;;
